Al Cenac — WDD5445 — position and weather

sailwx.info

Track history (hours):
 
Tides and Currents Weather Stations Pressure Air Temp Water Temp Dewpoint Dewpoint Depression Visibility Wind Speed Wind Dir Waves Ship Positions

Al Cenac

Owner: Caillou Island Towing Co, Inc., Houma, LA. More information available from US FCC via Universal Licensing System and Coast Guard Vessel Documentation Center.

Last reported at 2016-Feb-10 13:07 UTC. Time now 2016-Feb-10 17:38 UTC.
Position N 40°36' W 074°12'.

; draft 10 m.

Type: Tug. MMSI: 367158530.

Date/timePositionNaut miles runAvg speedWind from/ knotsBaromVisibWave heightAir tempDewpointWater temp
2016-Feb-10 13:07N 40°36' W 074°12'0 0.0
2016-Feb-10 12:32N 40°36' W 074°12'3 1.4
2016-Feb-10 10:32N 40°38' W 074°10'0 0.0
2016-Feb-10 08:28N 40°38' W 074°10'0 0.0
2016-Feb-10 04:13N 40°39' W 074°10'0 0.0
2016-Feb-10 03:11N 40°39' W 074°10'4 5.7
2016-Feb-10 02:32N 40°39' W 074°05'0 0.0
2016-Feb-10 01:33N 40°39' W 074°05'0 0.1
2016-Feb-10 00:33N 40°39' W 074°05'4 3.7
2016-Feb-09 23:34N 40°39' W 074°10'0 0.0
2016-Feb-09 22:32N 40°39' W 074°10'0 0.0
2016-Feb-09 21:33N 40°39' W 074°10'0 0.0
2016-Feb-09 20:33N 40°39' W 074°10'0 0.0
2016-Feb-09 19:34N 40°39' W 074°10'0 0.0
2016-Feb-09 18:25N 40°39' W 074°10'0 0.1
2016-Feb-09 17:33N 40°38' W 074°10'0 0.0
2016-Feb-09 16:31N 40°38' W 074°10'0 0.0
2016-Feb-09 15:33N 40°39' W 074°10'0 0.0
2016-Feb-09 14:34N 40°39' W 074°10'0 0.0
2016-Feb-09 13:33N 40°39' W 074°10'0 0.0
2016-Feb-09 12:33N 40°39' W 074°10'0 0.0
2016-Feb-09 11:34N 40°39' W 074°10'0 0.0
2016-Feb-09 10:34N 40°39' W 074°10'0 0.0
2016-Feb-09 09:33N 40°39' W 074°10'0 0.0
2016-Feb-09 08:33N 40°39' W 074°10'0 0.0
2016-Feb-09 07:34N 40°39' W 074°10'0 0.0
2016-Feb-09 06:34N 40°39' W 074°10'0 0.0
2016-Feb-09 05:33N 40°39' W 074°10'0 0.0
2016-Feb-09 04:34N 40°39' W 074°10'0 0.0
2016-Feb-09 03:34N 40°39' W 074°10'0 0.0
2016-Feb-09 02:33N 40°39' W 074°10'0 0.0
2016-Feb-09 01:33N 40°39' W 074°10'0 0.0
2016-Feb-09 00:33N 40°39' W 074°10'0 0.0
2016-Feb-08 23:33N 40°39' W 074°10'0 0.0
2016-Feb-08 22:33N 40°39' W 074°10'1 0.2
2016-Feb-08 18:05N 40°39' W 074°11'1 0.5
2016-Feb-08 16:32N 40°39' W 074°10'0 0.0
2016-Feb-08 15:33N 40°39' W 074°10'0 0.0
2016-Feb-08 14:34N 40°39' W 074°10'0 0.0
2016-Feb-08 13:34N 40°39' W 074°10'0 0.0
2016-Feb-08 12:33N 40°39' W 074°10'0 0.0
2016-Feb-07 01:33N 40°39' W 074°10'0 0.0
2016-Feb-07 00:33N 40°39' W 074°10'0 0.0
2016-Feb-06 23:33N 40°39' W 074°10'0 0.0
2016-Feb-06 22:33N 40°39' W 074°10'0 0.0
2016-Feb-06 21:33N 40°39' W 074°10'0 0.0
2016-Feb-06 20:33N 40°39' W 074°10'0 0.0
2016-Feb-06 19:33N 40°39' W 074°10'0 0.0
2016-Feb-06 18:34N 40°39' W 074°10'0 0.0
2016-Feb-06 17:33N 40°39' W 074°10'0 0.0
2016-Feb-06 16:33N 40°39' W 074°10'0 0.0
2016-Feb-06 15:34N 40°39' W 074°10'0 0.0
2016-Feb-06 14:34N 40°39' W 074°10'3 2.7
2016-Feb-06 13:28N 40°36' W 074°12'4 4.1
2016-Feb-06 12:34N 40°39' W 074°08'6 5.9
2016-Feb-06 11:34N 40°41' W 074°01'4 4.1
2016-Feb-06 10:34N 40°44' W 073°58'19 4.5
2016-Feb-06 06:19N 40°56' W 073°38'5 6.6
2016-Feb-06 05:33N 40°59' W 073°32'2 2.4
2016-Feb-06 04:32N 40°60' W 073°29'7 6.9
2016-Feb-06 03:33N 41°02' W 073°21'7 6.9
2016-Feb-06 02:33N 41°05' W 073°13'1 0.0
2016-Feb-05 01:33N 41°05' W 073°12'6 5.9
2016-Feb-05 00:33N 41°03' W 073°19'6 5.8
2016-Feb-04 23:33N 41°01' W 073°26'24 6.0
2016-Feb-04 19:31N 40°48' W 073°54'7 7.6
2016-Feb-04 18:34N 40°42' W 073°60'5 5.1
2016-Feb-04 17:33N 40°39' W 074°05'5 1.1
2016-Feb-04 13:09N 40°39' W 074°11'1 1.7
2016-Feb-04 12:33N 40°39' W 074°10'0 0.0
2016-Feb-04 11:33N 40°39' W 074°10'2 2.0
2016-Feb-04 10:33N 40°39' W 074°07'1 1.3
2016-Feb-04 09:33N 40°38' W 074°09'1 0.7
2016-Feb-04 08:34N 40°39' W 074°10'0 0.0
2016-Feb-04 07:33N 40°39' W 074°10'0 0.0
2016-Feb-04 06:34N 40°39' W 074°10'0 0.0
2016-Feb-04 05:33N 40°39' W 074°10'0 0.0
2016-Feb-04 04:33N 40°39' W 074°10'0 0.0
2016-Feb-04 03:34N 40°39' W 074°10'0 0.0
2016-Feb-04 02:33N 40°39' W 074°10'0 0.0
2016-Feb-04 01:33N 40°39' W 074°10'0 0.0
2016-Feb-04 00:33N 40°39' W 074°10'0 0.0
2016-Feb-03 23:33N 40°39' W 074°10'0 0.0
2016-Feb-03 22:10N 40°39' W 074°10'0 0.0
2016-Feb-03 21:32N 40°39' W 074°10'0 0.0
2016-Feb-03 20:33N 40°39' W 074°10'0 0.0
2016-Feb-03 19:33N 40°39' W 074°10'2 1.9
2016-Feb-03 18:33N 40°39' W 074°07'3 2.5
2016-Feb-03 17:33N 40°39' W 074°04'4 4.4
2016-Feb-03 16:33N 40°39' W 074°10'0 0.0
2016-Feb-03 15:33N 40°39' W 074°10'0 0.0
2016-Feb-03 14:33N 40°39' W 074°10'0 0.0
2016-Feb-03 13:33N 40°39' W 074°10'0 0.0
2016-Feb-03 12:33N 40°39' W 074°10'2 1.5
2016-Feb-03 11:33N 40°38' W 074°08'0 0.0
2016-Feb-03 10:33N 40°38' W 074°08'0 0.0
2016-Feb-03 09:33N 40°38' W 074°08'0 0.0
2016-Feb-03 08:34N 40°38' W 074°08'0 0.0
2016-Feb-03 07:32N 40°38' W 074°08'0 0.0
2016-Feb-03 06:32N 40°38' W 074°08'0 0.0
2016-Feb-03 05:33N 40°38' W 074°08'0 0.0
2016-Feb-03 04:32N 40°38' W 074°08'0 0.0
2016-Feb-03 03:33N 40°38' W 074°08'0 0.0
2016-Feb-03 02:34N 40°38' W 074°08'0 0.0
2016-Feb-03 01:34N 40°38' W 074°08'0 0.0
2016-Feb-03 00:33N 40°38' W 074°08'0 0.0
2016-Feb-02 23:33N 40°38' W 074°08'1 0.7
2016-Feb-02 22:32N 40°38' W 074°09'1 0.9
2016-Feb-02 21:32N 40°39' W 074°10'0 0.0
2016-Feb-02 20:29N 40°39' W 074°10'0 0.0
2016-Feb-02 13:33N 40°38' W 074°10'0 0.0
2016-Feb-02 12:33N 40°38' W 074°10'0 0.0
2016-Feb-02 10:23N 40°39' W 074°10'0 0.0
2016-Feb-02 09:33N 40°38' W 074°10'0 0.0
2016-Feb-02 08:34N 40°38' W 074°10'0 0.0
2016-Feb-02 07:33N 40°38' W 074°10'0 0.0
2016-Feb-02 06:33N 40°39' W 074°10'0 0.0
2016-Feb-02 05:33N 40°39' W 074°10'0 0.0
2016-Feb-02 04:34N 40°39' W 074°10'0 0.0
2016-Feb-02 03:33N 40°39' W 074°10'3 2.5
2016-Feb-02 02:33N 40°39' W 074°07'2 1.8
2016-Feb-02 01:33N 40°39' W 074°04'0 0.1
2016-Feb-02 00:34N 40°39' W 074°04'2 2.2
2016-Feb-01 23:32N 40°39' W 074°07'2 2.2
2016-Feb-01 22:32N 40°38' W 074°10'0 0.0
2016-Feb-01 21:29N 40°38' W 074°10'0 0.0
2016-Feb-01 20:32N 40°38' W 074°10'0 0.0
2016-Feb-01 19:33N 40°38' W 074°10'0 0.0
2016-Feb-01 18:33N 40°38' W 074°10'0 0.0
2016-Feb-01 17:11N 40°38' W 074°10'0 0.0
2016-Feb-01 16:33N 40°38' W 074°10'0 0.0
2016-Feb-01 15:33N 40°38' W 074°10'0 0.0
2016-Feb-01 14:33N 40°38' W 074°10'0 0.0
2016-Feb-01 13:33N 40°38' W 074°10'0 0.0
2016-Feb-01 12:33N 40°38' W 074°10'0 0.0
2016-Feb-01 11:33N 40°38' W 074°10'0 0.0
2016-Feb-01 10:33N 40°38' W 074°10'0 0.0
2016-Feb-01 09:33N 40°38' W 074°10'0 0.0
2016-Feb-01 08:29N 40°38' W 074°10'0 0.0
2016-Feb-01 07:32N 40°38' W 074°10'0 0.0
2016-Feb-01 06:33N 40°38' W 074°10'3 3.1
2016-Feb-01 05:33N 40°39' W 074°06'7 7.2
2016-Feb-01 04:33N 40°43' W 073°58'19 6.0
2016-Feb-01 01:26N 40°55' W 073°39'7 8.2
2016-Feb-01 00:33N 40°58' W 073°30'8 8.3
2016-Jan-31 23:33N 41°02' W 073°21'8 8.2
2016-Jan-31 22:33N 41°07' W 073°12'2 0.4
2016-Jan-31 16:33N 41°09' W 073°11'6 5.7
2016-Jan-31 15:31N 41°04' W 073°14'6 5.9
2016-Jan-31 14:33N 41°06' W 073°08'  
Track history (hours):
 
Tides and Currents Weather Stations Pressure Air Temp Water Temp Dewpoint Dewpoint Depression Visibility Wind Speed Wind Dir Waves Ship Positions

Al Cenac

Owner: Caillou Island Towing Co, Inc., Houma, LA. More information available from US FCC via Universal Licensing System and Coast Guard Vessel Documentation Center.

Last reported at 2016-Feb-10 13:07 UTC. Time now 2016-Feb-10 17:38 UTC.
Position N 40°36' W 074°12'.

; draft 10 m.

Type: Tug. MMSI: 367158530.

Date/timePositionNaut miles runAvg speedWind from/ knotsBaromVisibWave heightAir tempDewpointWater temp
2016-Feb-10 13:07N 40°36' W 074°12'0 0.0
2016-Feb-10 12:32N 40°36' W 074°12'3 1.4
2016-Feb-10 10:32N 40°38' W 074°10'0 0.0
2016-Feb-10 08:28N 40°38' W 074°10'0 0.0
2016-Feb-10 04:13N 40°39' W 074°10'0 0.0
2016-Feb-10 03:11N 40°39' W 074°10'4 5.7
2016-Feb-10 02:32N 40°39' W 074°05'0 0.0
2016-Feb-10 01:33N 40°39' W 074°05'0 0.1
2016-Feb-10 00:33N 40°39' W 074°05'4 3.7
2016-Feb-09 23:34N 40°39' W 074°10'0 0.0
2016-Feb-09 22:32N 40°39' W 074°10'0 0.0
2016-Feb-09 21:33N 40°39' W 074°10'0 0.0
2016-Feb-09 20:33N 40°39' W 074°10'0 0.0
2016-Feb-09 19:34N 40°39' W 074°10'0 0.0
2016-Feb-09 18:25N 40°39' W 074°10'0 0.1
2016-Feb-09 17:33N 40°38' W 074°10'0 0.0
2016-Feb-09 16:31N 40°38' W 074°10'0 0.0
2016-Feb-09 15:33N 40°39' W 074°10'0 0.0
2016-Feb-09 14:34N 40°39' W 074°10'0 0.0
2016-Feb-09 13:33N 40°39' W 074°10'0 0.0
2016-Feb-09 12:33N 40°39' W 074°10'0 0.0
2016-Feb-09 11:34N 40°39' W 074°10'0 0.0
2016-Feb-09 10:34N 40°39' W 074°10'0 0.0
2016-Feb-09 09:33N 40°39' W 074°10'0 0.0
2016-Feb-09 08:33N 40°39' W 074°10'0 0.0
2016-Feb-09 07:34N 40°39' W 074°10'0 0.0
2016-Feb-09 06:34N 40°39' W 074°10'0 0.0
2016-Feb-09 05:33N 40°39' W 074°10'0 0.0
2016-Feb-09 04:34N 40°39' W 074°10'0 0.0
2016-Feb-09 03:34N 40°39' W 074°10'0 0.0
2016-Feb-09 02:33N 40°39' W 074°10'0 0.0
2016-Feb-09 01:33N 40°39' W 074°10'0 0.0
2016-Feb-09 00:33N 40°39' W 074°10'0 0.0
2016-Feb-08 23:33N 40°39' W 074°10'0 0.0
2016-Feb-08 22:33N 40°39' W 074°10'1 0.2
2016-Feb-08 18:05N 40°39' W 074°11'1 0.5
2016-Feb-08 16:32N 40°39' W 074°10'0 0.0
2016-Feb-08 15:33N 40°39' W 074°10'0 0.0
2016-Feb-08 14:34N 40°39' W 074°10'0 0.0
2016-Feb-08 13:34N 40°39' W 074°10'0 0.0
2016-Feb-08 12:33N 40°39' W 074°10'0 0.0
2016-Feb-07 01:33N 40°39' W 074°10'0 0.0
2016-Feb-07 00:33N 40°39' W 074°10'0 0.0
2016-Feb-06 23:33N 40°39' W 074°10'0 0.0
2016-Feb-06 22:33N 40°39' W 074°10'0 0.0
2016-Feb-06 21:33N 40°39' W 074°10'0 0.0
2016-Feb-06 20:33N 40°39' W 074°10'0 0.0
2016-Feb-06 19:33N 40°39' W 074°10'0 0.0
2016-Feb-06 18:34N 40°39' W 074°10'0 0.0
2016-Feb-06 17:33N 40°39' W 074°10'0 0.0
2016-Feb-06 16:33N 40°39' W 074°10'0 0.0
2016-Feb-06 15:34N 40°39' W 074°10'0 0.0
2016-Feb-06 14:34N 40°39' W 074°10'3 2.7
2016-Feb-06 13:28N 40°36' W 074°12'4 4.1
2016-Feb-06 12:34N 40°39' W 074°08'6 5.9
2016-Feb-06 11:34N 40°41' W 074°01'4 4.1
2016-Feb-06 10:34N 40°44' W 073°58'19 4.5
2016-Feb-06 06:19N 40°56' W 073°38'5 6.6
2016-Feb-06 05:33N 40°59' W 073°32'2 2.4
2016-Feb-06 04:32N 40°60' W 073°29'7 6.9
2016-Feb-06 03:33N 41°02' W 073°21'7 6.9
2016-Feb-06 02:33N 41°05' W 073°13'1 0.0
2016-Feb-05 01:33N 41°05' W 073°12'6 5.9
2016-Feb-05 00:33N 41°03' W 073°19'6 5.8
2016-Feb-04 23:33N 41°01' W 073°26'24 6.0
2016-Feb-04 19:31N 40°48' W 073°54'7 7.6
2016-Feb-04 18:34N 40°42' W 073°60'5 5.1
2016-Feb-04 17:33N 40°39' W 074°05'5 1.1
2016-Feb-04 13:09N 40°39' W 074°11'1 1.7
2016-Feb-04 12:33N 40°39' W 074°10'0 0.0
2016-Feb-04 11:33N 40°39' W 074°10'2 2.0
2016-Feb-04 10:33N 40°39' W 074°07'1 1.3
2016-Feb-04 09:33N 40°38' W 074°09'1 0.7
2016-Feb-04 08:34N 40°39' W 074°10'0 0.0
2016-Feb-04 07:33N 40°39' W 074°10'0 0.0
2016-Feb-04 06:34N 40°39' W 074°10'0 0.0
2016-Feb-04 05:33N 40°39' W 074°10'0 0.0
2016-Feb-04 04:33N 40°39' W 074°10'0 0.0
2016-Feb-04 03:34N 40°39' W 074°10'0 0.0
2016-Feb-04 02:33N 40°39' W 074°10'0 0.0
2016-Feb-04 01:33N 40°39' W 074°10'0 0.0
2016-Feb-04 00:33N 40°39' W 074°10'0 0.0
2016-Feb-03 23:33N 40°39' W 074°10'0 0.0
2016-Feb-03 22:10N 40°39' W 074°10'0 0.0
2016-Feb-03 21:32N 40°39' W 074°10'0 0.0
2016-Feb-03 20:33N 40°39' W 074°10'0 0.0
2016-Feb-03 19:33N 40°39' W 074°10'2 1.9
2016-Feb-03 18:33N 40°39' W 074°07'3 2.5
2016-Feb-03 17:33N 40°39' W 074°04'4 4.4
2016-Feb-03 16:33N 40°39' W 074°10'0 0.0
2016-Feb-03 15:33N 40°39' W 074°10'0 0.0
2016-Feb-03 14:33N 40°39' W 074°10'0 0.0
2016-Feb-03 13:33N 40°39' W 074°10'0 0.0
2016-Feb-03 12:33N 40°39' W 074°10'2 1.5
2016-Feb-03 11:33N 40°38' W 074°08'0 0.0
2016-Feb-03 10:33N 40°38' W 074°08'0 0.0
2016-Feb-03 09:33N 40°38' W 074°08'0 0.0
2016-Feb-03 08:34N 40°38' W 074°08'0 0.0
2016-Feb-03 07:32N 40°38' W 074°08'0 0.0
2016-Feb-03 06:32N 40°38' W 074°08'0 0.0
2016-Feb-03 05:33N 40°38' W 074°08'0 0.0
2016-Feb-03 04:32N 40°38' W 074°08'0 0.0
2016-Feb-03 03:33N 40°38' W 074°08'0 0.0
2016-Feb-03 02:34N 40°38' W 074°08'0 0.0
2016-Feb-03 01:34N 40°38' W 074°08'0 0.0
2016-Feb-03 00:33N 40°38' W 074°08'0 0.0
2016-Feb-02 23:33N 40°38' W 074°08'1 0.7
2016-Feb-02 22:32N 40°38' W 074°09'1 0.9
2016-Feb-02 21:32N 40°39' W 074°10'0 0.0
2016-Feb-02 20:29N 40°39' W 074°10'0 0.0
2016-Feb-02 13:33N 40°38' W 074°10'0 0.0
2016-Feb-02 12:33N 40°38' W 074°10'0 0.0
2016-Feb-02 10:23N 40°39' W 074°10'0 0.0
2016-Feb-02 09:33N 40°38' W 074°10'0 0.0
2016-Feb-02 08:34N 40°38' W 074°10'0 0.0
2016-Feb-02 07:33N 40°38' W 074°10'0 0.0
2016-Feb-02 06:33N 40°39' W 074°10'0 0.0
2016-Feb-02 05:33N 40°39' W 074°10'0 0.0
2016-Feb-02 04:34N 40°39' W 074°10'0 0.0
2016-Feb-02 03:33N 40°39' W 074°10'3 2.5
2016-Feb-02 02:33N 40°39' W 074°07'2 1.8
2016-Feb-02 01:33N 40°39' W 074°04'0 0.1
2016-Feb-02 00:34N 40°39' W 074°04'2 2.2
2016-Feb-01 23:32N 40°39' W 074°07'2 2.2
2016-Feb-01 22:32N 40°38' W 074°10'0 0.0
2016-Feb-01 21:29N 40°38' W 074°10'0 0.0
2016-Feb-01 20:32N 40°38' W 074°10'0 0.0
2016-Feb-01 19:33N 40°38' W 074°10'0 0.0
2016-Feb-01 18:33N 40°38' W 074°10'0 0.0
2016-Feb-01 17:11N 40°38' W 074°10'0 0.0
2016-Feb-01 16:33N 40°38' W 074°10'0 0.0
2016-Feb-01 15:33N 40°38' W 074°10'0 0.0
2016-Feb-01 14:33N 40°38' W 074°10'0 0.0
2016-Feb-01 13:33N 40°38' W 074°10'0 0.0
2016-Feb-01 12:33N 40°38' W 074°10'0 0.0
2016-Feb-01 11:33N 40°38' W 074°10'0 0.0
2016-Feb-01 10:33N 40°38' W 074°10'0 0.0
2016-Feb-01 09:33N 40°38' W 074°10'0 0.0
2016-Feb-01 08:29N 40°38' W 074°10'0 0.0
2016-Feb-01 07:32N 40°38' W 074°10'0 0.0
2016-Feb-01 06:33N 40°38' W 074°10'3 3.1
2016-Feb-01 05:33N 40°39' W 074°06'7 7.2
2016-Feb-01 04:33N 40°43' W 073°58'19 6.0
2016-Feb-01 01:26N 40°55' W 073°39'7 8.2
2016-Feb-01 00:33N 40°58' W 073°30'8 8.3
2016-Jan-31 23:33N 41°02' W 073°21'8 8.2
2016-Jan-31 22:33N 41°07' W 073°12'2 0.4
2016-Jan-31 16:33N 41°09' W 073°11'6 5.7
2016-Jan-31 15:31N 41°04' W 073°14'6 5.9
2016-Jan-31 14:33N 41°06' W 073°08'  

Dump ship's entire track history